Time;durP1;ratioP1;P1;durP2;ratioP2;P2;SDS_P1;SDS_P2;PMS_P1;PMS_P2;Temp;Humidity;BMP_temperature;BMP_pressure;BME280_temperature;BME280_humidity;BME280_pressure;Samples;Min_cycle;Max_cycle;Signal;HPM_P1;HPM_P2
2024/02/04 00:02:03;;;;;;;15.85;7.65;;;7.40;99.90;;;;;;5094942;28;20005;-92
2024/02/04 00:04:32;;;;;;;15.32;8.15;;;7.30;99.90;;;;;;5089207;28;20033;-93
2024/02/04 00:06:58;;;;;;;13.40;7.88;;;7.40;99.90;;;;;;5087649;28;20054;-92
2024/02/04 00:09:27;;;;;;;11.23;5.78;;;7.40;99.90;;;;;;5069921;28;20033;-91
2024/02/04 00:11:53;;;;;;;13.02;6.15;;;7.50;99.90;;;;;;5089612;28;20017;-93
2024/02/04 00:14:21;;;;;;;14.10;6.50;;;7.40;99.90;;;;;;5055958;28;20096;-91
2024/02/04 00:16:49;;;;;;;;;;;7.40;99.90;;;;;;5049248;28;20027;-92
2024/02/04 00:19:15;;;;;;;11.90;5.57;;;7.50;99.90;;;;;;5069682;28;19909;-91
2024/02/04 00:21:41;;;;;;;9.32;7.22;;;7.50;99.90;;;;;;5067281;28;20039;-91
2024/02/04 00:24:10;;;;;;;10.02;6.20;;;7.50;99.90;;;;;;5069836;28;20040;-93
2024/02/04 00:26:35;;;;;;;13.52;6.60;;;7.50;99.90;;;;;;5051732;28;20033;-94
2024/02/04 00:29:02;;;;;;;13.82;6.88;;;7.50;99.90;;;;;;5064755;28;20032;-92
2024/02/04 00:31:30;;;;;;;10.90;5.70;;;7.50;99.90;;;;;;5082711;28;20024;-91
2024/02/04 00:33:58;;;;;;;9.80;6.20;;;7.50;99.90;;;;;;5085089;28;20028;-91
2024/02/04 00:36:33;;;;;;;12.85;6.82;;;7.50;99.90;;;;;;5081939;28;20060;-92
2024/02/04 00:39:00;;;;;;;11.63;5.45;;;7.50;99.90;;;;;;5083237;28;20094;-89
2024/02/04 00:41:29;;;;;;;12.82;6.82;;;7.50;99.90;;;;;;5066068;28;20029;-91
2024/02/04 00:44:01;;;;;;;10.63;4.85;;;7.50;99.90;;;;;;5047260;28;20029;-91
2024/02/04 00:46:27;;;;;;;10.35;5.93;;;7.50;99.90;;;;;;5063762;28;20025;-92
2024/02/04 00:49:32;;;;;;;10.93;7.15;;;7.50;99.90;;;;;;5066210;28;20028;-90
2024/02/04 00:52:00;;;;;;;12.00;5.75;;;7.50;99.90;;;;;;5082722;28;20395;-91
2024/02/04 00:54:30;;;;;;;9.90;5.85;;;7.50;99.90;;;;;;5083383;28;20032;-91
2024/02/04 00:57:00;;;;;;;8.73;5.90;;;7.40;99.90;;;;;;5061872;28;20128;-91
2024/02/04 00:59:27;;;;;;;13.35;6.00;;;7.40;99.90;;;;;;5064125;28;20093;-92
2024/02/04 01:02:03;;;;;;;7.78;4.57;;;7.40;99.90;;;;;;5079229;28;20032;-91
2024/02/04 01:04:29;;;;;;;11.20;6.05;;;7.40;99.90;;;;;;5083136;28;20040;-90
2024/02/04 01:06:57;;;;;;;10.80;6.57;;;7.40;99.90;;;;;;5065703;28;20021;-89
2024/02/04 01:09:29;;;;;;;11.10;6.07;;;7.40;99.90;;;;;;5060408;28;20051;-89
2024/02/04 01:11:58;;;;;;;;;;;7.40;99.90;;;;;;5084344;28;20032;-91
2024/02/04 01:17:17;;;;;;;11.93;7.00;;;7.40;99.90;;;;;;5053759;28;20399;-92
2024/02/04 01:19:51;;;;;;;9.70;5.43;;;7.40;99.90;;;;;;5049766;28;20028;-92
2024/02/04 01:22:38;;;;;;;11.43;6.43;;;7.40;99.90;;;;;;5048680;28;20048;-92
2024/02/04 01:25:07;;;;;;;9.40;5.70;;;7.40;99.90;;;;;;5047160;28;20037;-92
2024/02/04 01:27:50;;;;;;;11.10;5.40;;;7.40;99.90;;;;;;5065775;28;20031;-91
2024/02/04 01:30:38;;;;;;;13.00;7.00;;;7.40;99.90;;;;;;5066107;28;20073;-90
2024/02/04 01:33:21;;;;;;;9.95;5.80;;;7.30;99.90;;;;;;5084376;28;20048;-90
2024/02/04 01:35:49;;;;;;;10.35;6.03;;;7.30;99.90;;;;;;5082697;28;20036;-92
2024/02/04 01:38:32;;;;;;;10.77;6.90;;;7.30;99.90;;;;;;5064908;28;20031;-92
2024/02/04 01:47:09;;;;;;;9.13;5.65;;;7.30;99.90;;;;;;5944067;22;20049;-91
2024/02/04 01:49:39;;;;;;;12.50;5.20;;;7.30;99.90;;;;;;5045163;28;20033;-92
2024/02/04 01:52:11;;;;;;;10.18;5.35;;;7.30;99.90;;;;;;5028024;28;20136;-92
2024/02/04 01:54:42;;;;;;;12.32;7.47;;;7.30;99.90;;;;;;5043268;28;20039;-92
2024/02/04 01:57:10;;;;;;;9.70;4.97;;;7.20;99.90;;;;;;5042862;28;20040;-91
2024/02/04 01:59:40;;;;;;;8.13;4.60;;;7.30;99.90;;;;;;5043484;28;20021;-93
2024/02/04 02:02:10;;;;;;;10.43;5.75;;;7.30;99.90;;;;;;5043444;28;20120;-92
2024/02/04 02:04:43;;;;;;;7.90;4.85;;;7.30;99.90;;;;;;5027102;28;20086;-92
2024/02/04 02:07:27;;;;;;;8.45;5.03;;;7.20;99.90;;;;;;5038957;28;20021;-92
2024/02/04 02:09:56;;;;;;;8.93;4.60;;;7.20;99.90;;;;;;5043389;28;20070;-91
2024/02/04 02:13:00;;;;;;;8.15;5.07;;;7.20;99.90;;;;;;5063503;28;20041;-90
2024/02/04 02:15:36;;;;;;;12.30;5.43;;;7.20;99.90;;;;;;5043100;28;20033;-92
2024/02/04 02:18:19;;;;;;;8.57;4.82;;;7.20;99.90;;;;;;5027933;28;20094;-91
2024/02/04 02:21:17;;;;;;;9.65;5.03;;;7.20;99.90;;;;;;5009790;28;20029;-93
2024/02/04 02:24:35;;;;;;;10.10;5.22;;;7.20;99.90;;;;;;5014155;28;20045;-92
2024/02/04 02:27:06;;;;;;;7.30;5.50;;;7.20;99.90;;;;;;5027736;28;20022;-93
2024/02/04 02:29:56;;;;;;;8.75;5.60;;;7.20;99.90;;;;;;5028113;28;20029;-91
2024/02/04 02:32:41;;;;;;;7.82;4.97;;;7.20;99.90;;;;;;5042183;28;20033;-91
2024/02/04 02:35:13;;;;;;;8.25;4.85;;;7.20;99.90;;;;;;5056677;28;20154;-92
2024/02/04 02:41:32;;;;;;;7.90;3.97;;;7.20;99.90;;;;;;4965852;29;20099;-91
2024/02/04 02:44:24;;;;;;;8.82;4.95;;;7.20;99.90;;;;;;4998672;28;20036;-90
2024/02/04 02:47:19;;;;;;;7.95;4.97;;;7.20;99.90;;;;;;5055296;28;20033;-91
2024/02/04 02:49:45;;;;;;;9.45;5.10;;;7.10;99.90;;;;;;5066741;22;20092;-92
2024/02/04 02:52:12;;;;;;;6.82;5.13;;;7.10;99.90;;;;;;5042693;28;20021;-93
2024/02/04 02:54:37;;;;;;;7.55;5.07;;;7.10;99.90;;;;;;5061143;28;20032;-93
2024/02/04 02:57:05;;;;;;;6.85;4.95;;;7.20;99.90;;;;;;5044154;28;20052;-93
2024/02/04 02:59:34;;;;;;;9.80;5.25;;;7.10;99.90;;;;;;5060858;28;20029;-92
2024/02/04 03:02:18;;;;;;;11.32;5.57;;;7.20;99.90;;;;;;5041889;28;20125;-91
2024/02/04 03:04:44;;;;;;;7.70;5.53;;;7.10;99.90;;;;;;5041303;28;20037;-94
2024/02/04 03:07:10;;;;;;;8.80;4.93;;;7.10;99.90;;;;;;5051470;28;20028;-92
2024/02/04 03:09:35;;;;;;;8.57;6.55;;;7.10;99.90;;;;;;5039421;28;20507;-92
2024/02/04 03:12:07;;;;;;;10.10;5.45;;;7.00;99.90;;;;;;5040461;28;20023;-92
2024/02/04 03:14:33;;;;;;;11.80;5.03;;;7.10;99.90;;;;;;5055219;28;20029;-92
2024/02/04 03:16:59;;;;;;;7.10;4.55;;;7.00;99.90;;;;;;5049280;28;20057;-93
2024/02/04 03:19:33;;;;;;;9.57;5.50;;;7.00;99.90;;;;;;5043109;28;20056;-92
2024/02/04 03:21:59;;;;;;;9.32;5.20;;;7.00;99.90;;;;;;5040969;28;20048;-93
2024/02/04 03:24:28;;;;;;;9.48;6.00;;;7.00;99.90;;;;;;5040355;28;20116;-92
2024/02/04 03:26:54;;;;;;;9.18;5.20;;;6.90;99.90;;;;;;5045079;28;20025;-91
2024/02/04 03:29:19;;;;;;;8.70;5.30;;;6.90;99.90;;;;;;5037197;28;20026;-93
2024/02/04 03:31:45;;;;;;;14.73;5.05;;;6.90;99.90;;;;;;5038969;28;20213;-92
2024/02/04 03:34:11;;;;;;;8.35;5.95;;;6.80;99.90;;;;;;5039254;28;20021;-93
2024/02/04 03:36:38;;;;;;;6.63;4.25;;;6.80;99.90;;;;;;5051733;28;20033;-92
2024/02/04 03:39:04;;;;;;;6.70;3.92;;;6.80;99.90;;;;;;5040313;28;20379;-92
2024/02/04 03:41:29;;;;;;;8.73;5.30;;;6.80;99.90;;;;;;5046626;28;20056;-93
2024/02/04 03:43:55;;;;;;;5.72;4.10;;;6.80;99.90;;;;;;5049493;28;20025;-90
2024/02/04 03:46:25;;;;;;;7.07;4.40;;;6.80;99.90;;;;;;5056054;28;20041;-91
2024/02/04 03:48:50;;;;;;;7.38;5.00;;;6.80;99.90;;;;;;5046851;28;20033;-91
2024/02/04 03:51:18;;;;;;;12.05;4.82;;;6.80;99.90;;;;;;5037679;28;20017;-92
2024/02/04 03:53:44;;;;;;;6.70;4.43;;;6.80;99.90;;;;;;5040414;28;20021;-93
2024/02/04 03:56:12;;;;;;;6.38;4.72;;;6.70;99.90;;;;;;5058282;28;20104;-92
2024/02/04 03:58:38;;;;;;;8.80;5.10;;;6.70;99.90;;;;;;5051245;28;20021;-91
2024/02/04 04:01:10;;;;;;;9.23;5.75;;;6.80;99.90;;;;;;5041510;28;20032;-93
2024/02/04 04:03:40;;;;;;;9.23;4.47;;;6.70;99.90;;;;;;5039019;28;20025;-92
2024/02/04 04:06:06;;;;;;;9.27;4.28;;;6.70;99.90;;;;;;5048078;28;20651;-91
2024/02/04 04:08:32;;;;;;;7.38;4.90;;;6.70;99.90;;;;;;5039032;28;20045;-92
2024/02/04 04:11:00;;;;;;;9.38;4.88;;;6.70;99.90;;;;;;5047646;28;20471;-92
2024/02/04 04:13:26;;;;;;;8.48;5.82;;;6.60;99.90;;;;;;5041528;28;20115;-93
2024/02/04 04:15:55;;;;;;;9.35;5.05;;;6.70;99.90;;;;;;5043554;28;20056;-91
2024/02/04 04:18:23;;;;;;;6.78;4.25;;;6.70;99.90;;;;;;5054866;28;20025;-92
2024/02/04 04:20:49;;;;;;;8.27;5.40;;;6.60;99.90;;;;;;5048753;28;20033;-92
2024/02/04 04:23:15;;;;;;;10.07;4.85;;;6.70;99.90;;;;;;5038351;28;20049;-91
2024/02/04 04:25:40;;;;;;;8.07;5.57;;;6.60;99.90;;;;;;5039486;28;20025;-91
2024/02/04 04:28:09;;;;;;;9.40;6.20;;;6.60;99.90;;;;;;5038582;28;20045;-92
2024/02/04 04:30:34;;;;;;;6.28;4.38;;;6.60;99.90;;;;;;5039619;28;20087;-91
2024/02/04 04:33:03;;;;;;;7.70;6.07;;;6.50;99.90;;;;;;5041429;28;20017;-92
2024/02/04 04:35:30;;;;;;;8.15;4.40;;;6.60;99.90;;;;;;5037547;28;20030;-92
2024/02/04 04:37:55;;;;;;;10.00;5.63;;;6.60;99.90;;;;;;5037008;28;20482;-91
2024/02/04 04:40:21;;;;;;;8.05;5.15;;;6.50;99.90;;;;;;5031460;28;20033;-93
2024/02/04 04:42:47;;;;;;;9.52;5.85;;;6.60;99.90;;;;;;5032538;28;20031;-92
2024/02/04 04:45:14;;;;;;;9.98;5.03;;;6.60;99.90;;;;;;5041428;28;20036;-92
2024/02/04 04:47:39;;;;;;;9.25;4.82;;;6.60;99.90;;;;;;5043351;28;20030;-91
2024/02/04 04:50:06;;;;;;;7.93;4.85;;;6.60;99.90;;;;;;5036822;28;20655;-92
2024/02/04 04:52:32;;;;;;;10.98;6.13;;;6.60;99.90;;;;;;5037183;28;20025;-93
2024/02/04 04:54:57;;;;;;;7.80;5.40;;;6.60;99.90;;;;;;5036789;28;20048;-91
2024/02/04 04:57:23;;;;;;;10.15;5.97;;;6.60;99.90;;;;;;5043175;28;20566;-92
2024/02/04 04:59:49;;;;;;;8.70;4.90;;;6.60;99.90;;;;;;5042431;28;20043;-91
2024/02/04 05:02:15;;;;;;;7.35;4.65;;;6.60;99.90;;;;;;5037509;28;20061;-92
2024/02/04 05:04:47;;;;;;;14.30;4.97;;;6.60;99.90;;;;;;5039125;28;20029;-93
2024/02/04 05:07:13;;;;;;;9.65;5.75;;;6.60;99.90;;;;;;5039142;28;20022;-92
2024/02/04 05:09:39;;;;;;;6.18;3.97;;;6.60;99.90;;;;;;5045223;28;20091;-92
2024/02/04 05:12:06;;;;;;;10.00;6.43;;;6.60;99.90;;;;;;5056585;28;20020;-92
2024/02/04 05:14:31;;;;;;;6.70;3.35;;;6.60;99.90;;;;;;5057809;28;20025;-92
2024/02/04 05:16:57;;;;;;;7.13;5.15;;;6.60;99.90;;;;;;5056330;28;20028;-91
2024/02/04 05:19:23;;;;;;;8.27;4.70;;;6.60;99.90;;;;;;5057910;28;20088;-92
2024/02/04 05:21:51;;;;;;;5.88;4.03;;;6.60;99.90;;;;;;5057107;28;20025;-93
2024/02/04 05:24:19;;;;;;;7.40;4.63;;;6.60;99.90;;;;;;5039641;28;20025;-92
2024/02/04 05:26:45;;;;;;;6.25;4.18;;;6.70;99.90;;;;;;5038550;28;20061;-93
2024/02/04 05:29:20;;;;;;;7.40;4.57;;;6.70;99.90;;;;;;5056741;28;20067;-92
2024/02/04 05:31:45;;;;;;;6.53;4.00;;;6.70;99.90;;;;;;5039301;28;20071;-92
2024/02/04 05:34:12;;;;;;;7.28;3.65;;;6.70;99.90;;;;;;5039342;28;20081;-92
2024/02/04 05:36:38;;;;;;;7.07;4.18;;;6.70;99.90;;;;;;5048170;28;20032;-92
2024/02/04 05:39:19;;;;;;;7.25;3.63;;;6.70;99.90;;;;;;5030144;28;20032;-94
2024/02/04 05:41:44;;;;;;;5.53;4.20;;;6.70;99.90;;;;;;5055111;28;20085;-94
2024/02/04 05:44:10;;;;;;;7.22;3.92;;;6.70;99.90;;;;;;5055045;28;20036;-92
2024/02/04 05:46:37;;;;;;;6.43;4.47;;;6.80;99.90;;;;;;5043892;28;20030;-91
2024/02/04 05:49:08;;;;;;;5.72;4.32;;;6.70;99.90;;;;;;5043119;28;20032;-92
2024/02/04 05:51:43;;;;;;;8.35;3.55;;;6.80;99.90;;;;;;5056426;28;20024;-92
2024/02/04 05:54:09;;;;;;;7.95;3.85;;;6.70;99.90;;;;;;5053952;28;20040;-92
2024/02/04 05:56:35;;;;;;;6.15;4.03;;;6.70;99.90;;;;;;5042458;28;20530;-93
2024/02/04 05:59:00;;;;;;;6.28;3.33;;;6.80;99.90;;;;;;5050807;28;20239;-92
2024/02/04 06:01:26;;;;;;;5.78;3.83;;;6.80;99.90;;;;;;5048743;28;20529;-92
2024/02/04 06:03:52;;;;;;;5.78;3.22;;;6.70;99.90;;;;;;5042938;28;20047;-93
2024/02/04 06:06:19;;;;;;;6.55;3.40;;;6.80;99.90;;;;;;5041622;28;20037;-92
2024/02/04 06:08:46;;;;;;;6.90;4.03;;;6.80;99.90;;;;;;5040251;28;20407;-92
2024/02/04 06:11:13;;;;;;;9.38;4.90;;;6.80;99.90;;;;;;5040813;28;20018;-92
2024/02/04 06:13:40;;;;;;;5.25;2.92;;;6.80;99.90;;;;;;5041959;28;20029;-94
2024/02/04 06:16:06;;;;;;;6.78;3.35;;;6.80;99.90;;;;;;5051442;28;20025;-92
2024/02/04 06:18:32;;;;;;;7.50;4.35;;;6.80;99.90;;;;;;5054217;28;20029;-92
2024/02/04 06:21:00;;;;;;;7.22;3.22;;;6.80;99.90;;;;;;5062002;28;20025;-91
2024/02/04 06:23:26;;;;;;;5.97;4.60;;;6.80;99.90;;;;;;5041894;28;20113;-90
2024/02/04 06:25:51;;;;;;;6.90;4.30;;;6.80;99.90;;;;;;5039790;28;20076;-93
2024/02/04 06:28:17;;;;;;;7.07;4.50;;;6.80;99.90;;;;;;5044729;28;20075;-93
2024/02/04 06:30:43;;;;;;;5.65;3.42;;;6.80;99.90;;;;;;5056906;28;20105;-92
2024/02/04 06:33:08;;;;;;;6.53;3.83;;;6.80;99.90;;;;;;5049966;28;20037;-91
2024/02/04 06:35:35;;;;;;;5.53;4.32;;;6.80;99.90;;;;;;5053128;28;20029;-92
2024/02/04 06:38:00;;;;;;;6.05;4.28;;;6.80;99.90;;;;;;5060223;28;20021;-92
2024/02/04 06:40:26;;;;;;;5.65;4.45;;;6.80;99.90;;;;;;5042034;28;20040;-91
2024/02/04 06:42:52;;;;;;;6.28;3.53;;;6.80;99.90;;;;;;5039329;28;20028;-91
2024/02/04 06:45:18;;;;;;;5.55;3.92;;;6.80;99.90;;;;;;5041874;28;20611;-91
2024/02/04 06:47:45;;;;;;;7.35;3.60;;;6.80;99.90;;;;;;5047920;28;20021;-91
2024/02/04 06:50:14;;;;;;;7.45;4.30;;;6.80;99.90;;;;;;5040400;28;20055;-93
2024/02/04 06:52:43;;;;;;;6.95;3.47;;;6.80;99.90;;;;;;5039953;28;20088;-92
2024/02/04 06:55:09;;;;;;;5.45;3.55;;;6.80;99.90;;;;;;5039826;28;20029;-92
2024/02/04 06:57:35;;;;;;;6.20;4.03;;;6.80;99.90;;;;;;5043122;28;20022;-92
2024/02/04 07:00:01;;;;;;;4.70;3.75;;;6.80;99.90;;;;;;5039858;28;20032;-92
2024/02/04 07:02:27;;;;;;;3.78;2.88;;;6.80;99.90;;;;;;5039184;28;20025;-93
2024/02/04 07:05:02;;;;;;;5.28;3.67;;;6.80;99.90;;;;;;5039658;28;20033;-92
2024/02/04 07:07:27;;;;;;;3.38;2.55;;;6.80;99.90;;;;;;5041603;28;20025;-92
2024/02/04 07:09:57;;;;;;;3.95;2.70;;;6.80;99.90;;;;;;5043306;28;20530;-93
2024/02/04 07:12:25;;;;;;;5.72;2.10;;;6.80;99.90;;;;;;5044713;28;20091;-92
2024/02/04 07:14:51;;;;;;;5.10;3.53;;;6.90;99.90;;;;;;5044735;28;20104;-92
2024/02/04 07:17:17;;;;;;;4.55;3.08;;;6.80;99.90;;;;;;5037503;28;20026;-92
2024/02/04 07:19:43;;;;;;;8.98;2.72;;;6.90;99.90;;;;;;5039542;28;20028;-92
2024/02/04 07:22:09;;;;;;;3.45;3.05;;;6.90;99.90;;;;;;5038612;28;20526;-91
2024/02/04 07:24:35;;;;;;;4.57;3.42;;;6.90;99.90;;;;;;5045875;28;20444;-93
2024/02/04 07:27:01;;;;;;;3.05;2.33;;;6.90;99.90;;;;;;5049601;28;20101;-93
2024/02/04 07:29:26;;;;;;;3.20;1.90;;;6.90;99.90;;;;;;5058348;28;20053;-93
2024/02/04 07:31:52;;;;;;;3.20;1.95;;;6.90;99.90;;;;;;5053705;28;20029;-95
2024/02/04 07:34:49;;;;;;;5.90;2.70;;;6.90;99.90;;;;;;5063954;28;20029;-95
2024/02/04 07:37:17;;;;;;;4.70;2.53;;;6.90;99.90;;;;;;5055925;28;20022;-95
2024/02/04 07:39:46;;;;;;;3.75;2.08;;;7.00;99.90;;;;;;5067022;28;20054;-96
2024/02/04 07:42:27;;;;;;;3.78;2.60;;;6.90;99.90;;;;;;5038558;28;20522;-94
2024/02/04 07:47:49;;;;;;;3.70;2.42;;;7.00;99.90;;;;;;5021757;28;20080;-91
2024/02/04 07:50:21;;;;;;;;;;;6.90;99.90;;;;;;5004433;28;20089;-91
2024/02/04 07:52:49;;;;;;;3.58;2.17;;;6.90;99.90;;;;;;5020333;28;19909;-93
2024/02/04 07:55:18;;;;;;;2.95;2.33;;;6.90;99.90;;;;;;5017529;28;20461;-91
2024/02/04 07:57:51;;;;;;;2.88;2.40;;;6.90;99.90;;;;;;5001807;28;20073;-91
2024/02/04 08:00:18;;;;;;;2.95;2.47;;;7.00;99.90;;;;;;5013543;28;20048;-92
2024/02/04 08:02:47;;;;;;;2.92;2.25;;;7.00;99.90;;;;;;5023639;28;20040;-92
2024/02/04 08:05:14;;;;;;;2.92;1.67;;;7.00;99.90;;;;;;5036625;28;20068;-92
2024/02/04 08:07:41;;;;;;;3.72;2.05;;;6.90;99.90;;;;;;5023642;28;20121;-93
2024/02/04 08:10:23;;;;;;;2.53;2.22;;;6.90;99.90;;;;;;5022798;28;20030;-93
2024/02/04 08:12:53;;;;;;;3.28;2.15;;;6.90;99.90;;;;;;5015323;28;20440;-91
2024/02/04 08:15:25;;;;;;;2.97;1.65;;;7.00;99.90;;;;;;5036527;28;20022;-91
2024/02/04 08:17:52;;;;;;;5.40;3.13;;;6.90;99.90;;;;;;5026531;28;20030;-93
2024/02/04 08:20:28;;;;;;;4.60;1.98;;;7.00;99.90;;;;;;5039928;28;20030;-93
2024/02/04 08:23:20;;;;;;;3.95;1.98;;;6.90;99.90;;;;;;5023237;28;20064;-93
2024/02/04 08:25:50;;;;;;;4.03;2.95;;;7.00;99.90;;;;;;5011303;28;20470;-93
2024/02/04 08:28:44;;;;;;;3.20;2.90;;;7.00;99.90;;;;;;5021744;28;20026;-92
2024/02/04 08:31:18;;;;;;;2.92;2.40;;;7.00;99.90;;;;;;5036707;28;20033;-92
2024/02/04 08:34:05;;;;;;;2.85;1.88;;;7.00;99.90;;;;;;5020607;28;20527;-95
2024/02/04 08:36:43;;;;;;;4.72;2.63;;;7.00;99.90;;;;;;5017794;28;20041;-92
2024/02/04 08:39:34;;;;;;;3.05;2.75;;;7.00;99.90;;;;;;4990270;28;20488;-93
2024/02/04 08:42:25;;;;;;;2.90;2.67;;;7.10;99.90;;;;;;5014145;28;20026;-92
2024/02/04 08:44:52;;;;;;;2.78;2.58;;;7.10;99.90;;;;;;5004862;28;20068;-92
2024/02/04 08:47:30;;;;;;;3.88;3.38;;;7.10;99.90;;;;;;5020666;28;20596;-91
2024/02/04 08:50:37;;;;;;;2.40;1.92;;;7.20;99.90;;;;;;5004722;28;20038;-89
2024/02/04 08:53:42;;;;;;;3.38;2.30;;;7.20;99.90;;;;;;5027675;28;20038;-91
2024/02/04 08:56:22;;;;;;;2.35;2.10;;;7.20;99.90;;;;;;5003405;28;20041;-92
2024/02/04 08:59:02;;;;;;;3.42;2.17;;;7.20;99.90;;;;;;5016041;28;20037;-92
2024/02/04 09:01:29;;;;;;;2.30;1.83;;;7.20;99.90;;;;;;5030059;28;20124;-90
2024/02/04 09:06:36;;;;;;;3.25;2.60;;;7.30;99.90;;;;;;5068077;22;20052;-90
2024/02/04 09:09:10;;;;;;;4.35;2.30;;;7.20;99.90;;;;;;5061873;28;20047;-92
2024/02/04 09:11:40;;;;;;;3.88;2.50;;;7.30;99.90;;;;;;5044296;28;20013;-92
2024/02/04 09:14:43;;;;;;;2.22;1.50;;;7.30;99.90;;;;;;5042848;28;20029;-91
2024/02/04 09:17:52;;;;;;;3.40;1.63;;;7.30;99.90;;;;;;5061137;28;20017;-92
2024/02/04 09:20:28;;;;;;;1.77;1.65;;;7.30;99.90;;;;;;5043290;28;20491;-94
2024/02/04 09:22:55;;;;;;;2.67;2.47;;;7.30;99.90;;;;;;5042036;28;20029;-90
2024/02/04 09:25:34;;;;;;;4.32;1.80;;;7.30;99.90;;;;;;5018609;28;20029;-93
2024/02/04 09:28:21;;;;;;;3.53;2.55;;;7.30;99.90;;;;;;5043835;28;20041;-93
2024/02/04 09:30:53;;;;;;;2.92;2.13;;;7.40;99.90;;;;;;5026427;28;20468;-93
2024/02/04 09:33:41;;;;;;;3.75;1.75;;;7.40;99.90;;;;;;5044351;28;20068;-93
2024/02/04 09:36:14;;;;;;;4.70;3.20;;;7.40;99.90;;;;;;5044082;28;20017;-93
2024/02/04 09:38:52;;;;;;;4.25;2.88;;;7.40;99.90;;;;;;5047850;28;20025;-93
2024/02/04 09:41:20;;;;;;;2.58;1.75;;;7.40;99.90;;;;;;5020985;28;20041;-90
2024/02/04 09:46:36;;;;;;;3.10;2.47;;;7.40;99.90;;;;;;5181456;22;20057;-92
2024/02/04 09:49:04;;;;;;;3.40;2.00;;;7.40;99.90;;;;;;5040901;28;20029;-92
2024/02/04 09:51:33;;;;;;;2.72;2.53;;;7.50;99.90;;;;;;5024055;28;20043;-91
2024/02/04 09:54:06;;;;;;;3.47;1.67;;;7.70;99.90;;;;;;5022156;28;20033;-91
2024/02/04 09:56:35;;;;;;;2.17;1.60;;;7.70;99.90;;;;;;5023061;28;20052;-91
2024/02/04 09:59:01;;;;;;;2.95;2.70;;;7.70;99.90;;;;;;5040703;28;20537;-92
2024/02/04 10:01:27;;;;;;;4.25;2.50;;;7.60;99.90;;;;;;5024422;28;20034;-92
2024/02/04 10:03:54;;;;;;;2.08;1.83;;;7.60;99.90;;;;;;5022851;28;20029;-92
2024/02/04 10:06:20;;;;;;;4.30;2.03;;;7.60;99.90;;;;;;5023881;28;20033;-89
2024/02/04 10:08:48;;;;;;;2.40;1.60;;;7.70;99.90;;;;;;5041609;28;20025;-92
2024/02/04 10:11:14;;;;;;;2.05;1.83;;;7.70;99.90;;;;;;5039609;28;20033;-91
2024/02/04 10:13:48;;;;;;;2.50;2.33;;;7.70;99.90;;;;;;5022276;28;20026;-92
2024/02/04 10:16:15;;;;;;;;;;;7.70;99.90;;;;;;5023575;28;20097;-92
2024/02/04 10:18:49;;;;;;;2.63;2.03;;;7.70;99.90;;;;;;5036590;28;19977;-91
2024/02/04 10:21:19;;;;;;;3.28;2.20;;;7.70;99.90;;;;;;5022502;28;20053;-91
2024/02/04 10:23:49;;;;;;;1.98;1.85;;;7.70;99.90;;;;;;5024583;28;20542;-92
2024/02/04 10:26:16;;;;;;;2.60;2.40;;;7.70;99.90;;;;;;5023803;28;20044;-90
2024/02/04 10:28:46;;;;;;;4.45;1.52;;;7.70;99.90;;;;;;5024539;28;20021;-92
2024/02/04 10:31:12;;;;;;;4.75;2.03;;;7.70;99.90;;;;;;5022978;28;20071;-92
2024/02/04 10:33:39;;;;;;;2.55;2.25;;;7.80;99.90;;;;;;5024711;28;20033;-90
2024/02/04 10:36:09;;;;;;;2.70;2.33;;;7.80;99.90;;;;;;5044565;28;20054;-92
2024/02/04 10:38:35;;;;;;;4.38;2.15;;;7.90;99.90;;;;;;5031089;28;20093;-91
2024/02/04 10:41:02;;;;;;;3.60;1.35;;;8.00;99.90;;;;;;5026609;28;20079;-91
2024/02/04 10:43:39;;;;;;;3.80;2.50;;;8.10;99.90;;;;;;5025406;28;20028;-92
2024/02/04 10:46:13;;;;;;;5.55;2.15;;;8.20;99.90;;;;;;5025439;28;20105;-93
2024/02/04 10:48:45;;;;;;;;;;;8.20;99.90;;;;;;5044422;28;20036;-91
2024/02/04 10:51:18;;;;;;;2.78;2.15;;;8.30;99.90;;;;;;5025986;28;19905;-93
2024/02/04 10:53:45;;;;;;;3.70;2.00;;;8.30;99.70;;;;;;5043494;28;20026;-94
2024/02/04 10:56:32;;;;;;;0.95;0.85;;;8.40;99.00;;;;;;5026832;28;20097;-93
2024/02/04 10:59:00;;;;;;;1.88;1.10;;;8.40;99.40;;;;;;5043850;28;20030;-94
2024/02/04 11:01:26;;;;;;;;;;;8.40;98.60;;;;;;5045102;28;20021;-93
2024/02/04 11:03:53;;;;;;;1.63;1.13;;;8.50;98.60;;;;;;5045281;28;19909;-92
2024/02/04 11:06:21;;;;;;;1.75;1.35;;;8.60;98.00;;;;;;5044342;28;20033;-93
2024/02/04 11:08:46;;;;;;;2.72;1.58;;;8.70;98.20;;;;;;5043098;28;20025;-92
2024/02/04 11:11:12;;;;;;;1.83;1.27;;;8.80;98.40;;;;;;5043554;28;20029;-93
2024/02/04 11:13:41;;;;;;;2.22;1.65;;;8.80;97.90;;;;;;5041970;28;20385;-93
2024/02/04 11:16:27;;;;;;;2.17;1.05;;;8.80;98.30;;;;;;5026124;28;20108;-92
2024/02/04 11:19:09;;;;;;;2.95;1.38;;;8.80;98.10;;;;;;5046078;28;20079;-92
2024/02/04 11:21:54;;;;;;;1.73;1.42;;;8.80;98.00;;;;;;5025100;28;20109;-93
2024/02/04 11:24:49;;;;;;;2.25;1.50;;;8.90;98.70;;;;;;5024593;28;20060;-94
2024/02/04 11:27:15;;;;;;;2.90;1.63;;;8.90;98.30;;;;;;4954869;28;20502;-92
2024/02/04 11:29:41;;;;;;;1.92;1.40;;;9.00;97.10;;;;;;5023798;28;20040;-93
2024/02/04 11:32:07;;;;;;;3.10;2.08;;;9.10;97.00;;;;;;5041987;28;20025;-93
2024/02/04 11:34:33;;;;;;;2.13;1.55;;;9.10;97.40;;;;;;5018143;28;20036;-94
2024/02/04 11:37:00;;;;;;;1.52;1.02;;;9.10;96.70;;;;;;5025019;28;20022;-92
2024/02/04 11:39:26;;;;;;;2.00;1.80;;;9.10;96.10;;;;;;5022781;28;20108;-92
2024/02/04 11:41:52;;;;;;;2.55;1.55;;;9.10;97.00;;;;;;5039888;28;20106;-94
2024/02/04 11:44:24;;;;;;;2.55;2.25;;;9.20;97.00;;;;;;5039281;28;20051;-92
2024/02/04 11:46:51;;;;;;;2.50;1.88;;;9.20;96.50;;;;;;5021549;28;20091;-94
2024/02/04 11:49:21;;;;;;;2.05;1.25;;;9.20;95.90;;;;;;5021604;28;20099;-94
2024/02/04 11:51:48;;;;;;;2.33;1.27;;;9.20;97.00;;;;;;5023114;28;20022;-93
2024/02/04 11:54:19;;;;;;;2.65;1.77;;;9.30;97.10;;;;;;5039590;28;20025;-94
2024/02/04 11:56:52;;;;;;;3.88;1.60;;;9.30;96.60;;;;;;5041633;28;20029;-94
2024/02/04 11:59:20;;;;;;;1.35;0.90;;;9.40;97.00;;;;;;5040861;28;20291;-92
2024/02/04 12:01:46;;;;;;;1.48;1.20;;;9.40;96.00;;;;;;5041296;28;20366;-93
2024/02/04 12:04:18;;;;;;;3.35;1.20;;;9.40;95.60;;;;;;5020881;28;20033;-93
2024/02/04 12:06:44;;;;;;;1.70;1.00;;;9.30;96.20;;;;;;5039554;28;20116;-95
2024/02/04 12:09:10;;;;;;;1.98;1.73;;;9.40;96.30;;;;;;5038471;28;20045;-93
2024/02/04 12:11:41;;;;;;;2.17;1.98;;;9.30;96.40;;;;;;5040752;28;20403;-93
2024/02/04 12:14:07;;;;;;;2.20;1.35;;;9.20;96.30;;;;;;5038932;28;20033;-93
2024/02/04 12:16:35;;;;;;;2.13;1.50;;;9.30;96.60;;;;;;5040325;28;20030;-94
2024/02/04 12:19:04;;;;;;;1.83;1.55;;;9.30;97.90;;;;;;5023000;28;20112;-94
2024/02/04 12:21:30;;;;;;;2.65;1.60;;;9.30;97.20;;;;;;5040644;28;20033;-95
2024/02/04 12:23:56;;;;;;;2.25;2.03;;;9.30;97.80;;;;;;5042835;28;20025;-94
2024/02/04 12:26:23;;;;;;;1.83;1.67;;;9.20;97.20;;;;;;5032581;28;20427;-94
2024/02/04 12:28:50;;;;;;;2.30;2.10;;;9.10;99.20;;;;;;5041774;28;20105;-92
2024/02/04 12:31:25;;;;;;;1.65;1.27;;;9.10;98.80;;;;;;5023699;28;20047;-94
2024/02/04 12:33:58;;;;;;;1.17;1.00;;;9.10;97.80;;;;;;5040898;28;20483;-95
2024/02/04 12:36:25;;;;;;;1.98;1.35;;;9.10;97.70;;;;;;5023124;28;20029;-92
2024/02/04 12:38:55;;;;;;;2.40;1.70;;;9.20;99.10;;;;;;5042232;28;20018;-93
2024/02/04 12:41:25;;;;;;;1.67;1.40;;;9.20;98.00;;;;;;5022651;28;20105;-93
2024/02/04 12:43:53;;;;;;;2.85;2.58;;;9.10;98.50;;;;;;5024296;28;20052;-93
2024/02/04 12:46:19;;;;;;;2.40;1.67;;;9.20;98.10;;;;;;4999933;28;1208247;-93
2024/02/04 12:48:51;;;;;;;2.97;2.38;;;9.20;98.40;;;;;;5040984;28;20021;-94
2024/02/04 12:51:31;;;;;;;3.00;1.48;;;9.20;98.30;;;;;;5024805;28;20046;-92
2024/02/04 12:54:07;;;;;;;1.42;1.33;;;9.20;98.40;;;;;;5023868;28;20034;-92
2024/02/04 12:56:54;;;;;;;3.28;1.98;;;9.20;98.30;;;;;;5041930;28;20029;-93
2024/02/04 12:59:35;;;;;;;1.13;1.02;;;9.30;97.70;;;;;;5043443;28;20029;-93
2024/02/04 13:02:05;;;;;;;3.00;2.10;;;9.40;98.10;;;;;;5033700;28;20062;-93
2024/02/04 13:04:36;;;;;;;1.67;1.40;;;9.40;98.00;;;;;;5032387;28;20040;-93
2024/02/04 13:07:06;;;;;;;3.65;1.92;;;9.50;97.60;;;;;;5046435;28;20037;-93
2024/02/04 13:09:31;;;;;;;2.47;0.90;;;9.50;97.40;;;;;;5047940;28;20116;-94
2024/02/04 13:12:04;;;;;;;2.63;1.48;;;9.50;97.20;;;;;;5050232;28;20017;-95
2024/02/04 13:14:30;;;;;;;2.80;2.60;;;9.50;97.40;;;;;;5051034;28;20029;-93
2024/02/04 13:16:57;;;;;;;2.00;1.50;;;9.60;96.90;;;;;;5060473;28;20032;-91
2024/02/04 13:19:23;;;;;;;1.83;1.42;;;9.60;97.50;;;;;;5056867;28;20036;-92
2024/02/04 13:21:49;;;;;;;2.47;1.58;;;9.60;96.50;;;;;;5055486;28;20036;-92
2024/02/04 13:24:14;;;;;;;1.90;1.40;;;9.70;96.50;;;;;;5046830;28;20036;-94
2024/02/04 13:26:40;;;;;;;1.88;1.33;;;9.60;96.20;;;;;;5027662;28;20553;-95
2024/02/04 13:29:09;;;;;;;2.53;1.33;;;9.70;96.50;;;;;;5033620;28;20032;-92
2024/02/04 13:31:34;;;;;;;1.75;1.45;;;9.70;97.00;;;;;;5043553;28;20026;-93
2024/02/04 13:34:04;;;;;;;2.00;1.20;;;9.70;97.80;;;;;;5042217;28;20044;-92
2024/02/04 13:36:30;;;;;;;2.47;1.13;;;9.80;96.70;;;;;;5024864;28;20033;-92
2024/02/04 13:38:55;;;;;;;2.15;1.73;;;9.70;97.00;;;;;;5041714;28;20026;-93